createdAt,value
2023-01-05T00:01:33.203Z,9.33
2023-01-05T00:04:00.559Z,13.10
2023-01-05T00:06:27.679Z,10.00
2023-01-05T00:08:54.940Z,11.53
2023-01-05T00:11:43.020Z,12.30
2023-01-05T00:14:40.616Z,11.80
2023-01-05T00:17:28.313Z,14.10
2023-01-05T00:20:14.051Z,11.10
2023-01-05T00:22:51.099Z,13.57
2023-01-05T00:25:24.365Z,12.90
2023-01-05T00:27:53.856Z,11.57
2023-01-05T00:30:24.694Z,10.93
2023-01-05T00:32:52.231Z,12.10
2023-01-05T00:35:20.507Z,12.07
2023-01-05T00:37:47.611Z,10.77
2023-01-05T00:40:17.981Z,11.37
2023-01-05T00:42:45.619Z,14.17
2023-01-05T00:45:14.902Z,9.57
2023-01-05T00:47:42.623Z,8.87
2023-01-05T00:50:12.863Z,9.90
2023-01-05T00:52:39.805Z,8.57
2023-01-05T00:55:07.527Z,9.27
2023-01-05T00:57:34.667Z,8.20
2023-01-05T01:00:02.730Z,8.10
2023-01-05T01:02:30.130Z,9.37
2023-01-05T01:04:57.456Z,8.20
2023-01-05T01:07:24.629Z,8.20
2023-01-05T01:09:51.908Z,7.50
2023-01-05T01:12:19.497Z,7.90
2023-01-05T01:14:48.867Z,6.77
2023-01-05T01:17:17.492Z,7.57
2023-01-05T01:19:47.169Z,6.87
2023-01-05T01:22:14.691Z,7.80
2023-01-05T01:24:42.232Z,7.80
2023-01-05T01:27:09.211Z,7.90
2023-01-05T01:29:36.474Z,8.73
2023-01-05T01:32:04.778Z,8.50
2023-01-05T01:34:32.052Z,8.43
2023-01-05T01:37:00.344Z,8.07
2023-01-05T01:39:27.697Z,8.13
2023-01-05T01:41:54.714Z,11.83
2023-01-05T01:44:55.433Z,6.50
2023-01-05T01:47:32.833Z,6.47
2023-01-05T01:50:06.317Z,7.53
2023-01-05T01:52:34.485Z,7.97
2023-01-05T01:55:04.959Z,9.40
2023-01-05T01:57:32.752Z,9.93
2023-01-05T02:00:03.599Z,8.27
2023-01-05T02:02:30.714Z,8.73
2023-01-05T02:05:02.610Z,6.27
2023-01-05T02:07:34.049Z,7.40
2023-01-05T02:10:03.275Z,9.63
2023-01-05T02:12:39.967Z,8.30
2023-01-05T02:15:15.059Z,5.77
2023-01-05T02:18:09.254Z,7.80
2023-01-05T02:20:39.258Z,6.77
2023-01-05T02:23:45.620Z,6.70
2023-01-05T02:26:42.231Z,5.70
2023-01-05T02:29:29.958Z,6.47
2023-01-05T02:32:11.919Z,6.33
2023-01-05T02:35:02.906Z,6.27
2023-01-05T02:37:41.391Z,5.40
2023-01-05T02:40:21.453Z,4.60
2023-01-05T02:42:51.355Z,3.90
2023-01-05T02:45:18.429Z,6.87
2023-01-05T02:47:46.080Z,3.97
2023-01-05T02:50:29.335Z,3.87
2023-01-05T02:53:05.349Z,5.87
2023-01-05T02:55:42.152Z,6.40
2023-01-05T02:58:40.740Z,7.87
2023-01-05T03:01:15.446Z,4.77
2023-01-05T03:03:52.309Z,4.93
2023-01-05T03:06:30.848Z,5.20
2023-01-05T03:09:02.937Z,5.00
2023-01-05T03:12:02.967Z,4.20
2023-01-05T03:14:42.965Z,4.67
2023-01-05T03:17:14.203Z,5.23
2023-01-05T03:19:44.112Z,4.23
2023-01-05T03:22:48.896Z,4.03
2023-01-05T03:25:38.538Z,4.00
2023-01-05T03:28:30.966Z,4.13
2023-01-05T03:31:19.944Z,5.20
2023-01-05T03:34:34.865Z,3.73
2023-01-05T03:37:21.654Z,4.57
2023-01-05T03:39:48.637Z,4.27
2023-01-05T03:42:16.574Z,3.97
2023-01-05T03:44:48.581Z,3.60
2023-01-05T03:47:16.063Z,4.67
2023-01-05T03:49:43.169Z,6.10
2023-01-05T03:52:10.361Z,4.30
2023-01-05T03:54:37.280Z,4.90
2023-01-05T03:57:04.476Z,3.83
2023-01-05T03:59:31.573Z,4.17
2023-01-05T04:01:58.863Z,3.40
2023-01-05T04:04:25.881Z,2.80
2023-01-05T04:06:53.109Z,2.87
2023-01-05T04:09:20.155Z,4.87
2023-01-05T04:11:47.443Z,4.37
2023-01-05T04:14:14.431Z,4.20
2023-01-05T04:16:41.664Z,3.17
2023-01-05T04:19:08.604Z,2.30
2023-01-05T04:21:35.834Z,4.43
2023-01-05T04:24:02.842Z,4.33
2023-01-05T04:26:30.048Z,2.10
2023-01-05T04:28:56.998Z,2.50
2023-01-05T04:31:24.288Z,3.27
2023-01-05T04:33:51.256Z,2.57
2023-01-05T04:36:18.479Z,6.97
2023-01-05T04:38:45.450Z,2.87
2023-01-05T04:41:12.661Z,3.60
2023-01-05T04:43:39.995Z,2.47
2023-01-05T04:46:07.432Z,2.97
2023-01-05T04:48:34.500Z,2.87
2023-01-05T04:51:01.855Z,1.60
2023-01-05T04:53:28.853Z,3.47
2023-01-05T04:55:56.044Z,3.23
2023-01-05T04:58:23.018Z,5.83
2023-01-05T05:00:51.794Z,2.90
2023-01-05T05:03:18.824Z,3.17
2023-01-05T05:05:46.277Z,2.57
2023-01-05T05:08:13.685Z,4.00
2023-01-05T05:10:40.913Z,2.60
2023-01-05T05:13:07.874Z,2.30
2023-01-05T05:15:35.102Z,3.03
2023-01-05T05:18:08.628Z,3.10
2023-01-05T05:20:37.559Z,3.27
2023-01-05T05:23:04.540Z,3.80
2023-01-05T05:25:31.766Z,2.70
2023-01-05T05:27:58.840Z,4.17
2023-01-05T05:30:26.083Z,3.93
2023-01-05T05:32:53.150Z,3.47
2023-01-05T05:35:20.425Z,3.80
2023-01-05T05:37:50.122Z,3.47
2023-01-05T05:40:21.716Z,3.57
2023-01-05T05:42:48.681Z,2.70
2023-01-05T05:45:15.976Z,3.70
2023-01-05T05:47:43.975Z,4.50
2023-01-05T05:50:11.311Z,3.33
2023-01-05T05:52:38.265Z,2.20
2023-01-05T05:55:06.155Z,3.50
2023-01-05T05:57:33.214Z,2.20
2023-01-05T06:00:00.595Z,2.40
2023-01-05T06:02:27.576Z,2.23
2023-01-05T06:04:54.911Z,2.30
2023-01-05T06:07:21.863Z,2.63
2023-01-05T06:09:49.064Z,3.53
2023-01-05T06:12:16.256Z,2.97
2023-01-05T06:14:43.643Z,2.80
2023-01-05T06:17:10.575Z,2.93
2023-01-05T06:19:37.811Z,3.33
2023-01-05T06:22:04.744Z,4.27
2023-01-05T06:24:32.091Z,5.10
2023-01-05T06:26:59.028Z,6.10
2023-01-05T06:29:26.231Z,4.10
2023-01-05T06:31:53.203Z,2.13
2023-01-05T06:34:20.677Z,6.37
2023-01-05T06:36:47.597Z,4.40
2023-01-05T06:39:14.876Z,3.67
2023-01-05T06:41:41.837Z,5.50
2023-01-05T06:44:09.595Z,4.47
2023-01-05T06:46:36.590Z,6.77
2023-01-05T06:49:03.875Z,4.37
2023-01-05T06:51:30.819Z,2.83
2023-01-05T06:53:58.092Z,3.57
2023-01-05T06:56:25.018Z,5.10
2023-01-05T06:58:52.589Z,3.43
2023-01-05T07:01:19.903Z,6.87
2023-01-05T07:03:47.284Z,4.47
2023-01-05T07:06:15.418Z,4.57
2023-01-05T07:08:42.973Z,4.97
2023-01-05T07:11:10.121Z,5.17
2023-01-05T07:13:37.349Z,6.40
2023-01-05T07:16:04.451Z,3.97
2023-01-05T07:18:31.725Z,4.30
2023-01-05T07:21:01.551Z,6.63
2023-01-05T07:23:30.084Z,6.37
2023-01-05T07:26:01.451Z,4.17
2023-01-05T07:28:29.756Z,4.90
2023-01-05T07:30:56.804Z,3.70
2023-01-05T07:33:24.136Z,6.97
2023-01-05T07:35:51.250Z,5.53
2023-01-05T07:38:18.539Z,6.60
2023-01-05T07:40:45.661Z,8.30
2023-01-05T07:43:12.916Z,4.10
2023-01-05T07:45:40.025Z,7.63
2023-01-05T07:48:07.320Z,4.57
2023-01-05T07:50:34.273Z,4.90
2023-01-05T07:53:01.559Z,4.53
2023-01-05T07:55:28.567Z,4.30
2023-01-05T07:57:55.802Z,7.90
2023-01-05T08:00:22.800Z,7.30
2023-01-05T08:02:50.074Z,6.73
2023-01-05T08:05:17.257Z,10.57
2023-01-05T08:07:44.492Z,7.40
2023-01-05T08:10:29.536Z,8.20
2023-01-05T08:13:21.360Z,4.60
2023-01-05T08:15:51.240Z,4.77
2023-01-05T08:18:19.525Z,6.43
2023-01-05T08:20:57.972Z,6.87
2023-01-05T08:23:27.472Z,3.80
2023-01-05T08:25:55.595Z,6.47
2023-01-05T08:28:28.522Z,4.90
2023-01-05T08:31:24.827Z,6.20
2023-01-05T08:33:55.314Z,5.87
2023-01-05T08:36:22.438Z,3.57
2023-01-05T08:38:52.755Z,5.33
2023-01-05T08:41:26.279Z,5.03
2023-01-05T08:43:55.635Z,4.60
2023-01-05T08:46:25.633Z,4.27
2023-01-05T08:48:55.569Z,5.77
2023-01-05T08:51:22.787Z,11.93
2023-01-05T08:53:50.275Z,10.37
2023-01-05T08:56:17.855Z,5.10
2023-01-05T08:58:45.660Z,5.10
2023-01-05T09:01:18.156Z,7.43
2023-01-05T09:03:45.799Z,5.37
2023-01-05T09:06:13.445Z,8.17
2023-01-05T09:08:42.703Z,8.97
2023-01-05T09:11:18.321Z,7.53
2023-01-05T09:13:50.676Z,7.63
2023-01-05T09:16:35.534Z,14.20
2023-01-05T09:19:07.619Z,3.63
2023-01-05T09:21:34.618Z,7.70
2023-01-05T09:24:01.856Z,4.70
2023-01-05T09:26:28.859Z,6.97
2023-01-05T09:28:56.155Z,5.03
2023-01-05T09:31:23.631Z,6.13
2023-01-05T09:33:51.077Z,4.13
2023-01-05T09:36:19.155Z,7.87
2023-01-05T09:38:51.246Z,6.70
2023-01-05T09:41:32.599Z,6.23
2023-01-05T09:44:14.586Z,8.80
2023-01-05T09:46:47.523Z,7.17
2023-01-05T09:49:17.102Z,4.83
2023-01-05T09:51:44.494Z,6.33
2023-01-05T09:54:19.663Z,7.23
2023-01-05T09:59:45.398Z,4.03
2023-01-05T10:02:24.095Z,3.97
2023-01-05T10:04:53.052Z,5.07
2023-01-05T10:07:23.436Z,2.00
2023-01-05T10:09:53.537Z,4.13
2023-01-05T10:13:00.714Z,4.97
2023-01-05T10:15:30.968Z,2.80
2023-01-05T10:17:59.826Z,4.67
2023-01-05T10:20:56.471Z,5.43
2023-01-05T10:23:56.170Z,6.40
2023-01-05T10:29:45.438Z,4.93
2023-01-05T10:32:49.703Z,4.97
2023-01-05T10:35:59.106Z,7.30
2023-01-05T10:38:46.051Z,5.80
2023-01-05T10:41:32.791Z,3.73
2023-01-05T10:44:21.429Z,4.60
2023-01-05T10:46:52.605Z,5.97
2023-01-05T10:49:26.081Z,5.33
2023-01-05T10:51:56.815Z,8.60
2023-01-05T10:54:44.386Z,7.50
2023-01-05T10:57:34.523Z,7.57
2023-01-05T11:00:11.507Z,8.40
2023-01-05T11:03:12.942Z,7.97
2023-01-05T11:05:46.631Z,9.73
2023-01-05T11:08:25.656Z,6.27
2023-01-05T11:11:04.718Z,9.97
2023-01-05T11:13:42.536Z,6.33
2023-01-05T11:16:22.777Z,10.57
2023-01-05T11:18:57.474Z,4.87
2023-01-05T11:21:28.941Z,6.17
2023-01-05T11:23:58.914Z,7.67
2023-01-05T11:26:36.821Z,6.57
2023-01-05T11:29:09.351Z,4.17
2023-01-05T11:31:56.717Z,8.70
2023-01-05T11:34:41.651Z,8.07
2023-01-05T11:37:23.948Z,10.33
2023-01-05T11:39:54.573Z,7.30
2023-01-05T11:42:25.925Z,9.43
2023-01-05T11:44:55.458Z,10.80
2023-01-05T11:47:27.628Z,7.23
2023-01-05T11:50:09.524Z,7.20
2023-01-05T11:52:41.243Z,9.03
2023-01-05T11:55:24.127Z,11.90
2023-01-05T11:57:59.707Z,6.70
2023-01-05T12:00:32.528Z,5.50
2023-01-05T12:03:30.235Z,8.87
2023-01-05T12:06:02.729Z,5.97
2023-01-05T12:08:54.760Z,8.77
2023-01-05T12:11:23.525Z,9.20
2023-01-05T12:14:05.993Z,11.27
2023-01-05T12:16:44.419Z,7.93
2023-01-05T12:19:33.992Z,9.37
2023-01-05T12:22:13.042Z,8.40
2023-01-05T12:24:43.506Z,8.90
2023-01-05T12:27:31.882Z,3.87
2023-01-05T12:34:13.369Z,11.70
2023-01-05T12:37:04.804Z,6.17
2023-01-05T12:39:43.807Z,6.73
2023-01-05T12:42:30.147Z,8.33
2023-01-05T12:45:03.131Z,7.23
2023-01-05T12:48:01.380Z,7.73
2023-01-05T12:50:44.335Z,5.67
2023-01-05T12:53:34.652Z,4.57
2023-01-05T12:56:27.413Z,5.73
2023-01-05T12:59:16.614Z,9.30
2023-01-05T13:01:55.732Z,7.70
2023-01-05T13:04:41.272Z,6.37
2023-01-05T13:07:17.709Z,7.10
2023-01-05T13:09:52.915Z,3.60
2023-01-05T13:12:20.001Z,4.63
2023-01-05T13:15:07.435Z,8.40
2023-01-05T13:17:38.382Z,5.90
2023-01-05T13:20:43.228Z,7.10
2023-01-05T13:23:20.712Z,3.70
2023-01-05T13:25:58.470Z,7.53
2023-01-05T13:28:28.714Z,4.97
2023-01-05T13:31:13.990Z,5.40
2023-01-05T13:33:59.203Z,3.80
2023-01-05T13:36:32.469Z,6.13
2023-01-05T13:39:17.193Z,5.50
2023-01-05T13:42:02.423Z,2.20
2023-01-05T13:45:01.016Z,7.10
2023-01-05T13:47:28.651Z,4.27
2023-01-05T13:50:26.855Z,4.03
2023-01-05T13:53:11.313Z,4.90
2023-01-05T13:56:03.818Z,3.97
2023-01-05T13:58:44.671Z,3.87
2023-01-05T14:01:18.246Z,3.87
2023-01-05T14:03:52.602Z,5.13
2023-01-05T14:06:28.548Z,4.70
2023-01-05T14:08:55.745Z,3.70
2023-01-05T14:11:25.854Z,7.83
2023-01-05T14:14:26.710Z,5.17
2023-01-05T14:16:55.000Z,1.93
2023-01-05T14:19:22.607Z,4.73
2023-01-05T14:21:49.581Z,6.33
2023-01-05T14:27:21.902Z,2.63
2023-01-05T14:32:43.739Z,5.90
2023-01-05T14:35:19.930Z,4.27
2023-01-05T14:37:54.734Z,5.53
2023-01-05T14:40:40.360Z,4.47
2023-01-05T14:43:34.148Z,3.53
2023-01-05T14:46:05.042Z,4.87
2023-01-05T14:48:47.873Z,5.87
2023-01-05T14:51:23.935Z,3.93
2023-01-05T14:53:53.581Z,6.57
2023-01-05T14:56:20.846Z,4.20
2023-01-05T14:58:56.080Z,5.67
2023-01-05T15:04:15.631Z,4.83
2023-01-05T15:07:10.249Z,7.57
2023-01-05T15:09:49.090Z,5.47
2023-01-05T15:12:22.061Z,8.80
2023-01-05T15:15:16.571Z,3.80
2023-01-05T15:17:58.720Z,3.93
2023-01-05T15:21:03.484Z,8.77
2023-01-05T15:23:56.823Z,3.07
2023-01-05T15:26:37.052Z,8.23
2023-01-05T15:29:32.926Z,4.53
2023-01-05T15:32:11.913Z,6.00
2023-01-05T15:34:44.882Z,4.20
2023-01-05T15:37:21.748Z,6.53
2023-01-05T15:39:54.283Z,8.07
2023-01-05T15:42:33.929Z,4.03
2023-01-05T15:45:01.293Z,4.33
2023-01-05T15:47:29.755Z,7.37
2023-01-05T15:49:59.831Z,6.63
2023-01-05T15:52:29.668Z,5.67
2023-01-05T15:55:03.444Z,2.63
2023-01-05T15:57:30.872Z,5.60
2023-01-05T15:59:58.157Z,4.60
2023-01-05T16:02:28.955Z,4.07
2023-01-05T16:05:15.818Z,7.40
2023-01-05T16:08:08.394Z,6.10
2023-01-05T16:10:42.926Z,6.37
2023-01-05T16:13:17.375Z,4.40
2023-01-05T16:15:51.121Z,3.13
2023-01-05T16:18:29.827Z,7.90
2023-01-05T16:20:59.039Z,9.93
2023-01-05T16:23:37.993Z,7.90
2023-01-05T16:26:06.272Z,3.53
2023-01-05T16:28:33.265Z,5.47
2023-01-05T16:31:11.823Z,3.90
2023-01-05T16:33:40.364Z,2.20
2023-01-05T16:36:21.950Z,3.63
2023-01-05T16:38:49.543Z,2.50
2023-01-05T16:41:23.790Z,4.63
2023-01-05T16:43:57.020Z,2.63
2023-01-05T16:46:36.337Z,3.77
2023-01-05T16:49:25.913Z,4.33
2023-01-05T16:51:55.250Z,4.07
2023-01-05T16:54:38.276Z,2.73
2023-01-05T16:57:40.756Z,4.57
2023-01-05T17:00:26.286Z,2.30
2023-01-05T17:02:54.804Z,2.50
2023-01-05T17:05:28.722Z,2.00
2023-01-05T17:08:14.707Z,3.13
2023-01-05T17:10:42.237Z,1.97
2023-01-05T17:13:21.288Z,1.90
2023-01-05T17:15:50.098Z,2.40
2023-01-05T17:18:23.990Z,3.60
2023-01-05T17:20:53.472Z,3.13
2023-01-05T17:23:20.672Z,2.27
2023-01-05T17:25:47.971Z,3.50
2023-01-05T17:28:15.641Z,2.73
2023-01-05T17:30:43.245Z,2.63
2023-01-05T17:33:10.543Z,2.77
2023-01-05T17:35:37.637Z,3.27
2023-01-05T17:38:04.887Z,2.90
2023-01-05T17:40:31.944Z,3.73
2023-01-05T17:42:59.193Z,2.33
2023-01-05T17:45:30.093Z,2.70
2023-01-05T17:47:57.407Z,2.50
2023-01-05T17:53:02.273Z,4.13
2023-01-05T17:55:30.346Z,2.63
2023-01-05T17:57:58.336Z,2.70
2023-01-05T18:00:27.791Z,3.10
2023-01-05T18:02:55.330Z,5.47
2023-01-05T18:05:22.999Z,3.10
2023-01-05T18:07:50.666Z,3.93
2023-01-05T18:10:21.571Z,3.53
2023-01-05T18:12:48.898Z,3.43
2023-01-05T18:15:16.478Z,5.63
2023-01-05T18:17:43.907Z,3.13
2023-01-05T18:20:14.220Z,4.13
2023-01-05T18:22:41.572Z,2.43
2023-01-05T18:25:09.513Z,3.43
2023-01-05T18:27:36.648Z,2.60
2023-01-05T18:30:05.428Z,2.53
2023-01-05T18:32:32.446Z,1.83
2023-01-05T18:34:59.642Z,2.67
2023-01-05T18:39:54.776Z,2.77
2023-01-05T18:42:21.996Z,4.57
2023-01-05T18:44:49.375Z,3.00
2023-01-05T18:47:16.536Z,2.17
2023-01-05T18:49:43.936Z,3.07
2023-01-05T18:52:11.572Z,1.90
2023-01-05T18:54:38.795Z,3.47
2023-01-05T18:57:05.765Z,5.83
2023-01-05T18:59:33.290Z,3.33
2023-01-05T19:02:00.304Z,3.67
2023-01-05T19:04:28.183Z,3.13
2023-01-05T19:06:56.068Z,2.67
2023-01-05T19:09:23.394Z,4.00
2023-01-05T19:11:50.653Z,2.10
2023-01-05T19:14:19.277Z,2.33
2023-01-05T19:16:47.241Z,2.93
2023-01-05T19:19:15.787Z,1.40
2023-01-05T19:21:45.235Z,2.80
2023-01-05T19:24:18.127Z,2.73
2023-01-05T19:26:46.703Z,4.03
2023-01-05T19:29:14.654Z,3.77
2023-01-05T19:31:42.849Z,3.07
2023-01-05T19:34:12.737Z,4.93
2023-01-05T19:36:39.675Z,2.70
2023-01-05T19:39:15.305Z,3.40
2023-01-05T19:41:46.712Z,3.37
2023-01-05T19:44:16.943Z,6.87
2023-01-05T19:46:44.701Z,2.53
2023-01-05T19:49:22.992Z,3.60
2023-01-05T19:51:50.459Z,2.50
2023-01-05T19:54:18.244Z,5.47
2023-01-05T19:56:45.972Z,2.63
2023-01-05T19:59:24.499Z,3.13
2023-01-05T20:01:51.752Z,2.97
2023-01-05T20:04:19.216Z,3.80
2023-01-05T20:06:46.584Z,3.03
2023-01-05T20:09:16.635Z,3.13
2023-01-05T20:11:48.884Z,3.20
2023-01-05T20:14:24.798Z,3.80
2023-01-05T20:17:03.699Z,3.27
2023-01-05T20:19:32.767Z,3.60
2023-01-05T20:22:01.773Z,3.70
2023-01-05T20:24:31.795Z,3.43
2023-01-05T20:27:02.707Z,2.97
2023-01-05T20:29:31.127Z,3.70
2023-01-05T20:32:02.121Z,3.90
2023-01-05T20:34:32.315Z,2.13
2023-01-05T20:37:00.171Z,4.33
2023-01-05T20:39:27.730Z,5.10
2023-01-05T20:41:54.697Z,3.47
2023-01-05T20:44:24.872Z,3.53
2023-01-05T20:46:53.949Z,2.17
2023-01-05T20:49:22.144Z,3.37
2023-01-05T20:51:49.940Z,3.27
2023-01-05T20:54:17.425Z,2.63
2023-01-05T20:56:46.547Z,4.73
2023-01-05T20:59:20.402Z,3.40
2023-01-05T21:01:47.695Z,3.77
2023-01-05T21:04:15.554Z,5.37
2023-01-05T21:06:43.248Z,3.40
2023-01-05T21:09:10.851Z,2.90
2023-01-05T21:11:38.323Z,3.67
2023-01-05T21:14:09.005Z,5.23
2023-01-05T21:16:43.116Z,4.43
2023-01-05T21:19:13.037Z,3.23
2023-01-05T21:21:39.982Z,4.00
2023-01-05T21:24:07.945Z,3.10
2023-01-05T21:26:35.059Z,3.23
2023-01-05T21:29:02.564Z,4.00
2023-01-05T21:31:29.590Z,3.93
2023-01-05T21:33:56.813Z,3.77
2023-01-05T21:36:26.242Z,4.00
2023-01-05T21:39:05.704Z,2.73
2023-01-05T21:41:52.287Z,2.53
2023-01-05T21:44:20.588Z,2.23
2023-01-05T21:46:48.627Z,1.57
2023-01-05T21:49:16.897Z,2.20
2023-01-05T21:52:02.799Z,3.30
2023-01-05T21:54:48.789Z,3.37
2023-01-05T21:57:16.064Z,3.63
2023-01-05T21:59:44.515Z,3.37
2023-01-05T22:02:12.872Z,3.57
2023-01-05T22:04:40.207Z,3.33
2023-01-05T22:07:07.509Z,1.97
2023-01-05T22:09:35.642Z,2.57
2023-01-05T22:12:03.897Z,2.73
2023-01-05T22:14:31.119Z,2.80
2023-01-05T22:16:58.019Z,2.87
2023-01-05T22:19:25.273Z,2.73
2023-01-05T22:21:52.283Z,3.00
2023-01-05T22:24:19.670Z,3.53
2023-01-05T22:26:46.734Z,3.60
2023-01-05T22:29:13.999Z,2.47
2023-01-05T22:31:41.141Z,2.57
2023-01-05T22:34:09.473Z,4.57
2023-01-05T22:36:36.439Z,3.60
2023-01-05T22:39:03.892Z,5.03
2023-01-05T22:41:31.480Z,4.27
2023-01-05T22:44:00.112Z,3.63
2023-01-05T22:46:29.374Z,5.27
2023-01-05T22:48:57.908Z,4.43
2023-01-05T22:51:30.388Z,4.97
2023-01-05T22:53:58.573Z,7.17
2023-01-05T22:56:26.987Z,6.73
2023-01-05T22:58:55.822Z,6.23
2023-01-05T23:01:26.045Z,7.60
2023-01-05T23:03:55.434Z,5.63
2023-01-05T23:06:22.694Z,4.90
2023-01-05T23:08:51.350Z,4.83
2023-01-05T23:11:28.287Z,2.93
2023-01-05T23:13:56.638Z,4.37
2023-01-05T23:16:25.349Z,6.80
2023-01-05T23:18:53.348Z,6.27
2023-01-05T23:21:22.283Z,4.80
2023-01-05T23:23:52.235Z,3.20
2023-01-05T23:26:19.747Z,4.90
2023-01-05T23:28:47.750Z,5.17
2023-01-05T23:31:16.380Z,4.73
2023-01-05T23:33:45.188Z,4.90
2023-01-05T23:36:14.272Z,3.57
2023-01-05T23:38:42.188Z,4.00
2023-01-05T23:41:11.193Z,5.00
2023-01-05T23:43:40.038Z,4.87
2023-01-05T23:46:13.383Z,3.43
2023-01-05T23:48:40.713Z,6.30
2023-01-05T23:51:13.408Z,4.97
2023-01-05T23:53:49.810Z,4.97
2023-01-05T23:56:26.064Z,4.53
2023-01-05T23:58:59.411Z,3.97
